sensor_id;sensor_type;location;lat;lon;timestamp;pressure;altitude;pressure_sealevel;temperature;humidity
75756;BME280;64369;58.008;56.186;2022-11-20T09:07:59;101078.44;;;12.05;21.35
75756;BME280;64369;58.008;56.186;2022-11-20T09:12:42;101147.19;;;1.49;32.86
75756;BME280;64369;58.008;56.186;2022-11-20T09:13:15;101145.72;;;0.40;34.92
75756;BME280;64369;58.008;56.186;2022-11-20T09:13:48;101160.69;;;0.90;33.74
75756;BME280;64369;58.008;56.186;2022-11-20T09:14:24;101156.81;;;1.01;33.82
75756;BME280;64369;58.008;56.186;2022-11-20T09:15:01;101142.03;;;1.21;33.47
75756;BME280;64369;58.008;56.186;2022-11-20T09:15:34;101166.19;;;1.32;35.33
75756;BME280;64369;58.008;56.186;2022-11-20T09:16:08;101176.91;;;1.51;41.60
75756;BME280;64369;58.008;56.186;2022-11-20T09:16:41;101164.47;;;2.01;47.05
75756;BME280;64369;58.008;56.186;2022-11-20T09:17:18;101168.41;;;2.79;48.13
75756;BME280;64369;58.008;56.186;2022-11-20T09:17:56;101162.34;;;3.76;50.90
75756;BME280;64369;58.008;56.186;2022-11-20T09:18:30;101156.13;;;4.86;48.04
75756;BME280;64369;58.008;56.186;2022-11-20T09:19:07;63030.47;;;-137.84;100.00
75756;BME280;64369;58.008;56.186;2022-11-20T09:19:41;63030.47;;;-137.84;100.00
75756;BME280;64369;58.008;56.186;2022-11-20T09:20:19;63030.47;;;-137.84;100.00
75756;BME280;64369;58.008;56.186;2022-11-20T09:20:59;63030.47;;;-137.84;100.00
75756;BME280;64369;58.008;56.186;2022-11-20T09:21:32;63030.47;;;-137.84;100.00
75756;BME280;64369;58.008;56.186;2022-11-20T09:22:04;63030.47;;;-137.84;100.00
75756;BME280;64369;58.008;56.186;2022-11-20T09:22:39;63030.47;;;-137.84;100.00
75756;BME280;64369;58.008;56.186;2022-11-20T09:23:12;63030.47;;;-137.84;100.00
75756;BME280;64369;58.008;56.186;2022-11-20T09:23:45;63030.47;;;-137.84;100.00
75756;BME280;64369;58.008;56.186;2022-11-20T09:24:18;63030.47;;;-137.84;100.00
75756;BME280;64369;58.008;56.186;2022-11-20T09:24:52;63030.47;;;-137.84;100.00
75756;BME280;64369;58.008;56.186;2022-11-20T09:25:25;63030.47;;;-137.84;100.00
75756;BME280;64369;58.008;56.186;2022-11-20T09:26:09;63030.47;;;-137.84;100.00
75756;BME280;64369;58.008;56.186;2022-11-20T09:26:43;63030.47;;;-137.84;100.00
75756;BME280;64369;58.008;56.186;2022-11-20T09:27:20;63030.47;;;-137.84;100.00
75756;BME280;64369;58.008;56.186;2022-11-20T09:28:01;63030.47;;;-137.84;100.00
75756;BME280;64369;58.008;56.186;2022-11-20T09:28:37;63030.47;;;-137.84;100.00
75756;BME280;64369;58.008;56.186;2022-11-20T09:29:10;63030.47;;;-137.84;100.00
75756;BME280;64369;58.008;56.186;2022-11-20T09:29:45;63030.47;;;-137.84;100.00
75756;BME280;64369;58.008;56.186;2022-11-20T09:30:18;63030.47;;;-137.84;100.00
75756;BME280;64369;58.008;56.186;2022-11-20T09:30:53;63030.47;;;-137.84;100.00
75756;BME280;64369;58.008;56.186;2022-11-20T09:31:25;63030.47;;;-137.84;100.00
75756;BME280;64369;58.008;56.186;2022-11-20T09:32:02;63030.47;;;-137.84;100.00
75756;BME280;64369;58.008;56.186;2022-11-20T09:32:41;63030.47;;;-137.84;100.00
75756;BME280;64369;58.008;56.186;2022-11-20T09:33:14;63030.47;;;-137.84;100.00
75756;BME280;64369;58.008;56.186;2022-11-20T09:33:47;63030.47;;;-137.84;100.00
75756;BME280;64369;58.008;56.186;2022-11-20T09:34:19;63030.47;;;-137.84;100.00
75756;BME280;64369;58.008;56.186;2022-11-20T09:34:52;63030.47;;;-137.84;100.00
75756;BME280;64369;58.008;56.186;2022-11-20T09:35:28;63030.47;;;-137.84;100.00
75756;BME280;64369;58.008;56.186;2022-11-20T09:36:00;63030.47;;;-137.84;100.00
75756;BME280;64369;58.008;56.186;2022-11-20T09:36:35;63030.47;;;-137.84;100.00
75756;BME280;64369;58.008;56.186;2022-11-20T09:37:08;63030.47;;;-137.84;100.00
75756;BME280;64369;58.008;56.186;2022-11-20T09:37:40;63030.47;;;-137.84;100.00
75756;BME280;64369;58.008;56.186;2022-11-20T09:38:13;63030.47;;;-137.84;100.00
75756;BME280;64369;58.008;56.186;2022-11-20T09:38:46;63030.47;;;-137.84;100.00
75756;BME280;64369;58.008;56.186;2022-11-20T09:39:56;63030.47;;;-137.84;100.00
75756;BME280;64369;58.008;56.186;2022-11-20T09:40:29;63030.47;;;-137.84;100.00
75756;BME280;64369;58.008;56.186;2022-11-20T09:41:06;63030.47;;;-137.84;100.00
75756;BME280;64369;58.008;56.186;2022-11-20T09:43:56;63030.47;;;-137.84;100.00
75756;BME280;64369;58.008;56.186;2022-11-20T09:45:10;63030.47;;;-137.84;100.00
75756;BME280;64369;58.008;56.186;2022-11-20T09:46:26;63030.47;;;-137.84;100.00
75756;BME280;64369;58.008;56.186;2022-11-20T09:50:57;63030.47;;;-137.84;100.00
75756;BME280;64369;58.008;56.186;2022-11-20T09:54:22;63030.47;;;-137.84;100.00
75756;BME280;64369;58.008;56.186;2022-11-20T09:55:03;63030.47;;;-137.84;100.00
75756;BME280;64369;58.008;56.186;2022-11-20T09:55:45;63030.47;;;-137.84;100.00
75756;BME280;64369;58.008;56.186;2022-11-20T09:56:20;63030.47;;;-137.84;100.00
75756;BME280;64369;58.008;56.186;2022-11-20T09:57:14;63030.47;;;-137.84;100.00
75756;BME280;64369;58.008;56.186;2022-11-20T09:57:55;63030.47;;;-137.84;100.00
75756;BME280;64369;58.008;56.186;2022-11-20T09:58:42;63030.47;;;-137.84;100.00
75756;BME280;64369;58.008;56.186;2022-11-20T09:59:46;63030.47;;;-137.84;100.00
75756;BME280;64369;58.008;56.186;2022-11-20T10:00:36;63030.47;;;-137.84;100.00
75756;BME280;64369;58.008;56.186;2022-11-20T10:01:21;63030.47;;;-137.84;100.00
75756;BME280;64369;58.008;56.186;2022-11-20T10:02:00;63030.47;;;-137.84;100.00
75756;BME280;64369;58.008;56.186;2022-11-20T10:02:42;63030.47;;;-137.84;100.00
75756;BME280;64369;58.008;56.186;2022-11-20T10:03:58;63030.47;;;-137.84;100.00
75756;BME280;64369;58.008;56.186;2022-11-20T10:05:10;63030.47;;;-137.84;100.00
75756;BME280;64369;58.008;56.186;2022-11-20T10:05:54;63030.47;;;-137.84;100.00
75756;BME280;64369;58.008;56.186;2022-11-20T10:06:39;63030.47;;;-137.84;100.00
75756;BME280;64369;58.008;56.186;2022-11-20T10:07:20;63030.47;;;-137.84;100.00
75756;BME280;64369;58.008;56.186;2022-11-20T10:08:25;63030.47;;;-137.84;100.00
75756;BME280;64369;58.008;56.186;2022-11-20T10:09:56;63030.47;;;-137.84;100.00
75756;BME280;64369;58.008;56.186;2022-11-20T10:10:35;63030.47;;;-137.84;100.00
75756;BME280;64369;58.008;56.186;2022-11-20T10:11:20;63030.47;;;-137.84;100.00
75756;BME280;64369;58.008;56.186;2022-11-20T10:12:14;63030.47;;;-137.84;100.00
75756;BME280;64369;58.008;56.186;2022-11-20T10:16:03;63030.47;;;-137.84;100.00
75756;BME280;64369;58.008;56.186;2022-11-20T10:18:13;63030.47;;;-137.84;100.00
75756;BME280;64369;58.008;56.186;2022-11-20T10:20:06;63030.47;;;-137.84;100.00
75756;BME280;64369;58.008;56.186;2022-11-20T10:22:42;63030.47;;;-137.84;100.00
75756;BME280;64369;58.008;56.186;2022-11-20T10:23:53;63030.47;;;-137.84;100.00
75756;BME280;64369;58.008;56.186;2022-11-20T10:24:53;63030.47;;;-137.84;100.00
75756;BME280;64369;58.008;56.186;2022-11-20T10:27:12;63030.47;;;-137.84;100.00
75756;BME280;64369;58.008;56.186;2022-11-20T10:28:16;63030.47;;;-137.84;100.00
75756;BME280;64369;58.008;56.186;2022-11-20T10:29:04;63030.47;;;-137.84;100.00
75756;BME280;64369;58.008;56.186;2022-11-20T10:29:46;63030.47;;;-137.84;100.00
75756;BME280;64369;58.008;56.186;2022-11-20T10:30:27;63030.47;;;-137.84;100.00
75756;BME280;64369;58.008;56.186;2022-11-20T10:31:10;63030.47;;;-137.84;100.00
75756;BME280;64369;58.008;56.186;2022-11-20T10:31:54;63030.47;;;-137.84;100.00
75756;BME280;64369;58.008;56.186;2022-11-20T10:32:39;63030.47;;;-137.84;100.00
75756;BME280;64369;58.008;56.186;2022-11-20T10:33:57;63030.47;;;-137.84;100.00
75756;BME280;64369;58.008;56.186;2022-11-20T10:34:57;63030.47;;;-137.84;100.00
75756;BME280;64369;58.008;56.186;2022-11-20T10:35:41;63030.47;;;-137.84;100.00
75756;BME280;64369;58.008;56.186;2022-11-20T10:36:56;63030.47;;;-137.84;100.00
75756;BME280;64369;58.008;56.186;2022-11-20T10:37:37;63030.47;;;-137.84;100.00
75756;BME280;64369;58.008;56.186;2022-11-20T10:38:26;63030.47;;;-137.84;100.00
75756;BME280;64369;58.008;56.186;2022-11-20T10:40:38;63030.47;;;-137.84;100.00
75756;BME280;64369;58.008;56.186;2022-11-20T10:41:41;63030.47;;;-137.84;100.00
75756;BME280;64369;58.008;56.186;2022-11-20T10:42:24;63030.47;;;-137.84;100.00
75756;BME280;64369;58.008;56.186;2022-11-20T10:43:33;63030.47;;;-137.84;100.00
75756;BME280;64369;58.008;56.186;2022-11-20T10:44:16;63030.47;;;-137.84;100.00
75756;BME280;64369;58.008;56.186;2022-11-20T10:45:58;63030.47;;;-137.84;100.00
75756;BME280;64369;58.008;56.186;2022-11-20T10:46:45;63030.47;;;-137.84;100.00
75756;BME280;64369;58.008;56.186;2022-11-20T10:47:18;63030.47;;;-137.84;100.00
75756;BME280;64369;58.008;56.186;2022-11-20T10:47:54;63030.47;;;-137.84;100.00
75756;BME280;64369;58.008;56.186;2022-11-20T10:48:47;63030.47;;;-137.84;100.00
75756;BME280;64369;58.008;56.186;2022-11-20T10:49:21;63030.47;;;-137.84;100.00
75756;BME280;64369;58.008;56.186;2022-11-20T10:49:55;63030.47;;;-137.84;100.00
75756;BME280;64369;58.008;56.186;2022-11-20T10:50:36;63030.47;;;-137.84;100.00
75756;BME280;64369;58.008;56.186;2022-11-20T10:51:38;63030.47;;;-137.84;100.00
75756;BME280;64369;58.008;56.186;2022-11-20T10:52:27;63030.47;;;-137.84;100.00
75756;BME280;64369;58.008;56.186;2022-11-20T10:56:32;63030.47;;;-137.84;100.00
75756;BME280;64369;58.008;56.186;2022-11-20T11:00:09;63030.47;;;-137.84;100.00
75756;BME280;64369;58.008;56.186;2022-11-20T11:00:42;63030.47;;;-137.84;100.00
75756;BME280;64369;58.008;56.186;2022-11-20T11:01:20;63030.47;;;-137.84;100.00
75756;BME280;64369;58.008;56.186;2022-11-20T11:01:58;63030.47;;;-137.84;100.00
75756;BME280;64369;58.008;56.186;2022-11-20T11:02:35;63030.47;;;-137.84;100.00
75756;BME280;64369;58.008;56.186;2022-11-20T11:03:24;63030.47;;;-137.84;100.00
75756;BME280;64369;58.008;56.186;2022-11-20T11:04:00;63030.47;;;-137.84;100.00
75756;BME280;64369;58.008;56.186;2022-11-20T11:04:44;63030.47;;;-137.84;100.00
75756;BME280;64369;58.008;56.186;2022-11-20T11:05:32;63030.47;;;-137.84;100.00
75756;BME280;64369;58.008;56.186;2022-11-20T11:06:49;63030.47;;;-137.84;100.00
75756;BME280;64369;58.008;56.186;2022-11-20T11:07:27;63030.47;;;-137.84;100.00
75756;BME280;64369;58.008;56.186;2022-11-20T11:08:12;63030.47;;;-137.84;100.00
75756;BME280;64369;58.008;56.186;2022-11-20T11:08:49;63030.47;;;-137.84;100.00
75756;BME280;64369;58.008;56.186;2022-11-20T11:09:33;63030.47;;;-137.84;100.00
75756;BME280;64369;58.008;56.186;2022-11-20T11:11:28;63030.47;;;-137.84;100.00
75756;BME280;64369;58.008;56.186;2022-11-20T11:12:08;63030.47;;;-137.84;100.00
75756;BME280;64369;58.008;56.186;2022-11-20T11:12:46;63030.47;;;-137.84;100.00
75756;BME280;64369;58.008;56.186;2022-11-20T11:13:24;63030.47;;;-137.84;100.00
75756;BME280;64369;58.008;56.186;2022-11-20T11:14:15;63030.47;;;-137.84;100.00
75756;BME280;64369;58.008;56.186;2022-11-20T11:14:55;63030.47;;;-137.84;100.00
75756;BME280;64369;58.008;56.186;2022-11-20T11:15:35;63030.47;;;-137.84;100.00
75756;BME280;64369;58.008;56.186;2022-11-20T11:16:24;63030.47;;;-137.84;100.00
75756;BME280;64369;58.008;56.186;2022-11-20T11:16:59;63030.47;;;-137.84;100.00
75756;BME280;64369;58.008;56.186;2022-11-20T11:17:33;63030.47;;;-137.84;100.00
75756;BME280;64369;58.008;56.186;2022-11-20T11:18:10;63030.47;;;-137.84;100.00
75756;BME280;64369;58.008;56.186;2022-11-20T11:18:42;63030.47;;;-137.84;100.00
75756;BME280;64369;58.008;56.186;2022-11-20T11:19:15;63030.47;;;-137.84;100.00
75756;BME280;64369;58.008;56.186;2022-11-20T11:20:01;63030.47;;;-137.84;100.00
75756;BME280;64369;58.008;56.186;2022-11-20T11:20:52;63030.47;;;-137.84;100.00
75756;BME280;64369;58.008;56.186;2022-11-20T11:21:26;63030.47;;;-137.84;100.00
75756;BME280;64369;58.008;56.186;2022-11-20T11:21:59;63030.47;;;-137.84;100.00
75756;BME280;64369;58.008;56.186;2022-11-20T11:22:34;63030.47;;;-137.84;100.00
75756;BME280;64369;58.008;56.186;2022-11-20T11:23:43;63030.47;;;-137.84;100.00
75756;BME280;64369;58.008;56.186;2022-11-20T11:24:23;63030.47;;;-137.84;100.00
75756;BME280;64369;58.008;56.186;2022-11-20T11:25:01;63030.47;;;-137.84;100.00
75756;BME280;64369;58.008;56.186;2022-11-20T11:25:36;63030.47;;;-137.84;100.00
75756;BME280;64369;58.008;56.186;2022-11-20T11:26:22;63030.47;;;-137.84;100.00
75756;BME280;64369;58.008;56.186;2022-11-20T11:27:01;63030.47;;;-137.84;100.00
75756;BME280;64369;58.008;56.186;2022-11-20T11:27:53;63030.47;;;-137.84;100.00
75756;BME280;64369;58.008;56.186;2022-11-20T11:28:29;63030.47;;;-137.84;100.00
75756;BME280;64369;58.008;56.186;2022-11-20T11:29:03;63030.47;;;-137.84;100.00
75756;BME280;64369;58.008;56.186;2022-11-20T11:29:36;63030.47;;;-137.84;100.00
75756;BME280;64369;58.008;56.186;2022-11-20T11:30:15;63030.47;;;-137.84;100.00
75756;BME280;64369;58.008;56.186;2022-11-20T11:30:49;63030.47;;;-137.84;100.00
75756;BME280;64369;58.008;56.186;2022-11-20T11:31:23;63030.47;;;-137.84;100.00
75756;BME280;64369;58.008;56.186;2022-11-20T11:33:08;63030.47;;;-137.84;100.00
75756;BME280;64369;58.008;56.186;2022-11-20T11:33:43;63030.47;;;-137.84;100.00
75756;BME280;64369;58.008;56.186;2022-11-20T11:34:17;63030.47;;;-137.84;100.00
75756;BME280;64369;58.008;56.186;2022-11-20T11:35:06;63030.47;;;-137.84;100.00
75756;BME280;64369;58.008;56.186;2022-11-20T11:35:53;63030.47;;;-137.84;100.00
75756;BME280;64369;58.008;56.186;2022-11-20T11:36:29;63030.47;;;-137.84;100.00
75756;BME280;64369;58.008;56.186;2022-11-20T11:37:02;63030.47;;;-137.84;100.00
